createdAt,value
2022-08-17T00:00:42.958Z,18.20
2022-08-17T00:03:11.298Z,19.20
2022-08-17T00:06:07.209Z,20.20
2022-08-17T00:08:39.833Z,18.70
2022-08-17T00:11:12.498Z,20.60
2022-08-17T00:13:48.119Z,17.80
2022-08-17T00:16:55.440Z,17.80
2022-08-17T00:19:23.784Z,16.30
2022-08-17T00:22:32.060Z,18.50
2022-08-17T00:24:44.400Z,20.90
2022-08-17T00:27:12.644Z,15.60
2022-08-17T00:29:41.219Z,16.90
2022-08-17T00:33:14.210Z,19.10
2022-08-17T00:34:57.628Z,16.80
2022-08-17T00:37:25.816Z,13.90
2022-08-17T00:39:54.130Z,11.20
2022-08-17T00:42:22.360Z,13.00
2022-08-17T00:44:50.788Z,13.40
2022-08-17T00:47:19.022Z,10.90
2022-08-17T00:49:47.335Z,12.20
2022-08-17T00:52:21.855Z,13.40
2022-08-17T00:54:53.051Z,11.80
2022-08-17T00:57:33.163Z,13.40
2022-08-17T01:00:07.084Z,15.50
2022-08-17T01:02:42.712Z,13.30
2022-08-17T01:05:21.141Z,12.30
2022-08-17T01:07:53.055Z,15.00
2022-08-17T01:11:00.533Z,13.10
2022-08-17T01:13:17.096Z,11.70
2022-08-17T01:15:57.588Z,13.70
2022-08-17T01:18:27.062Z,18.00
2022-08-17T01:20:57.824Z,13.40
2022-08-17T01:23:29.004Z,11.30
2022-08-17T01:25:59.976Z,10.50
2022-08-17T01:28:36.389Z,14.60
2022-08-17T01:31:19.923Z,13.60
2022-08-17T01:33:48.167Z,17.60
2022-08-17T01:36:16.375Z,12.50
2022-08-17T01:38:44.643Z,12.60
2022-08-17T01:41:16.681Z,13.10
2022-08-17T01:43:51.163Z,12.40
2022-08-17T01:46:24.477Z,12.00
2022-08-17T01:48:53.737Z,16.80
2022-08-17T01:51:22.539Z,11.20
2022-08-17T01:53:57.657Z,12.00
2022-08-17T01:56:28.810Z,13.60
2022-08-17T01:58:57.466Z,13.20
2022-08-17T02:01:29.612Z,12.80
2022-08-17T02:04:00.462Z,16.60
2022-08-17T02:06:52.431Z,13.10
2022-08-17T02:09:23.338Z,13.30
2022-08-17T02:14:27.238Z,14.60
2022-08-17T02:16:56.253Z,11.30
2022-08-17T02:19:24.517Z,11.90
2022-08-17T02:21:54.324Z,13.60
2022-08-17T02:25:01.115Z,13.90
2022-08-17T02:27:20.574Z,15.10
2022-08-17T02:29:48.822Z,14.70
2022-08-17T02:32:27.561Z,12.20
2022-08-17T02:35:00.333Z,15.10
2022-08-17T02:37:30.073Z,15.70
2022-08-17T02:39:59.685Z,18.10
2022-08-17T02:42:33.918Z,16.50
2022-08-17T02:45:03.168Z,15.10
2022-08-17T02:47:31.506Z,14.50
2022-08-17T02:49:59.900Z,21.80
2022-08-17T02:52:43.492Z,16.20
2022-08-17T02:57:58.666Z,14.80
2022-08-17T03:00:34.014Z,18.10
2022-08-17T03:03:04.849Z,15.00
2022-08-17T03:05:36.122Z,19.50
2022-08-17T03:08:05.953Z,15.20
2022-08-17T03:10:34.673Z,18.60
2022-08-17T03:13:03.264Z,16.40
2022-08-17T03:15:34.350Z,17.70
2022-08-17T03:18:03.736Z,17.80
2022-08-17T03:20:33.309Z,14.20
2022-08-17T03:23:02.744Z,19.00
2022-08-17T03:25:35.517Z,20.30
2022-08-17T03:28:05.001Z,19.40
2022-08-17T03:30:34.485Z,16.20
2022-08-17T03:33:05.666Z,25.70
2022-08-17T03:35:36.625Z,17.50
2022-08-17T03:38:05.298Z,22.60
2022-08-17T03:40:34.494Z,21.50
2022-08-17T03:43:22.897Z,22.50
2022-08-17T03:46:34.004Z,21.80
2022-08-17T03:49:17.030Z,20.00
2022-08-17T03:52:03.812Z,20.30
2022-08-17T03:54:50.518Z,19.00
2022-08-17T03:57:19.416Z,25.20
2022-08-17T03:59:47.910Z,25.40
2022-08-17T04:02:20.189Z,19.30
2022-08-17T04:04:51.299Z,25.10
2022-08-17T04:07:24.361Z,22.40
2022-08-17T04:09:52.505Z,26.40
2022-08-17T04:12:23.615Z,26.00
2022-08-17T04:14:54.673Z,22.60
2022-08-17T04:17:28.562Z,22.60
2022-08-17T04:19:57.392Z,22.80
2022-08-17T04:22:31.347Z,21.20
2022-08-17T04:25:23.977Z,20.10
2022-08-17T04:27:52.453Z,20.60
2022-08-17T04:30:21.285Z,18.40
2022-08-17T04:33:06.157Z,23.20
2022-08-17T04:35:41.910Z,21.60
2022-08-17T04:38:15.907Z,21.30
2022-08-17T04:41:02.721Z,20.00
2022-08-17T04:43:33.000Z,15.90
2022-08-17T04:46:05.539Z,19.10
2022-08-17T04:48:45.904Z,20.80
2022-08-17T04:51:27.947Z,19.10
2022-08-17T04:53:59.491Z,20.20
2022-08-17T04:56:29.537Z,23.80
2022-08-17T04:59:01.449Z,19.10
2022-08-17T05:01:32.462Z,23.00
2022-08-17T05:04:33.159Z,18.50
2022-08-17T05:06:54.685Z,15.60
2022-08-17T05:09:23.005Z,20.20
2022-08-17T05:11:52.708Z,17.80
2022-08-17T05:14:32.930Z,20.90
2022-08-17T05:17:07.088Z,18.50
2022-08-17T05:19:39.550Z,19.50
2022-08-17T05:22:07.953Z,18.40
2022-08-17T05:24:42.727Z,19.60
2022-08-17T05:27:19.067Z,20.50
2022-08-17T05:29:47.481Z,23.10
2022-08-17T05:32:39.173Z,26.50
2022-08-17T05:35:05.557Z,20.70
2022-08-17T05:37:33.741Z,22.00
2022-08-17T05:40:02.066Z,18.50
2022-08-17T05:42:30.351Z,24.10
2022-08-17T05:44:59.030Z,23.20
2022-08-17T05:47:27.742Z,22.20
2022-08-17T05:49:56.414Z,20.70
2022-08-17T05:53:02.357Z,19.50
2022-08-17T05:55:42.386Z,17.90
2022-08-17T05:58:39.647Z,19.80
2022-08-17T06:01:15.939Z,17.00
2022-08-17T06:03:44.133Z,23.50
2022-08-17T06:06:40.862Z,20.60
2022-08-17T06:09:25.739Z,20.70
2022-08-17T06:12:32.814Z,19.00
2022-08-17T06:15:26.373Z,18.30
2022-08-17T06:17:58.674Z,18.20
2022-08-17T06:20:38.692Z,14.00
2022-08-17T06:23:12.314Z,19.50
2022-08-17T06:25:50.430Z,14.60
2022-08-17T06:28:30.586Z,18.60
2022-08-17T06:31:05.881Z,17.00
2022-08-17T06:33:37.682Z,16.20
2022-08-17T06:36:13.796Z,15.50
2022-08-17T06:38:53.710Z,15.10
2022-08-17T06:41:32.617Z,14.60
2022-08-17T06:44:43.390Z,17.20
2022-08-17T06:47:13.730Z,18.90
2022-08-17T06:49:44.935Z,16.10
2022-08-17T06:52:45.835Z,17.50
2022-08-17T06:55:20.401Z,17.20
2022-08-17T06:57:58.217Z,15.00
2022-08-17T07:00:47.865Z,14.30
2022-08-17T07:03:39.912Z,13.10
2022-08-17T07:06:15.108Z,14.40
2022-08-17T07:09:01.223Z,18.50
2022-08-17T07:11:36.903Z,18.10
2022-08-17T07:14:37.709Z,11.90
2022-08-17T07:17:12.260Z,15.10
2022-08-17T07:19:45.730Z,15.20
2022-08-17T07:24:47.525Z,13.30
2022-08-17T07:27:22.165Z,14.90
2022-08-17T07:29:53.856Z,13.40
2022-08-17T07:32:27.533Z,16.60
2022-08-17T07:35:17.491Z,17.10
2022-08-17T07:38:24.857Z,18.00
2022-08-17T07:41:03.819Z,15.50
2022-08-17T07:43:38.132Z,14.20
2022-08-17T07:46:42.940Z,19.70
2022-08-17T07:49:11.343Z,12.10
2022-08-17T07:51:44.301Z,20.20
2022-08-17T07:54:15.346Z,11.30
2022-08-17T07:56:45.887Z,14.50
2022-08-17T07:59:23.198Z,12.70
2022-08-17T08:01:57.599Z,12.60
2022-08-17T08:05:00.581Z,13.50
2022-08-17T08:07:36.089Z,11.60
2022-08-17T08:10:07.209Z,17.50
2022-08-17T08:12:43.456Z,14.00
2022-08-17T08:15:19.083Z,13.90
2022-08-17T08:17:54.601Z,14.00
2022-08-17T08:20:51.556Z,14.10
2022-08-17T08:23:50.956Z,11.00
2022-08-17T08:26:39.788Z,12.40
2022-08-17T08:29:32.905Z,11.10
2022-08-17T08:32:25.743Z,9.70
2022-08-17T08:35:29.779Z,11.90
2022-08-17T08:38:20.199Z,10.90
2022-08-17T08:40:51.328Z,11.90
2022-08-17T08:43:19.531Z,11.80
2022-08-17T08:45:50.729Z,14.40
2022-08-17T08:48:56.396Z,11.60
2022-08-17T08:51:51.681Z,10.40
2022-08-17T08:54:33.798Z,11.20
2022-08-17T08:57:29.176Z,12.00
2022-08-17T09:00:20.870Z,15.50
2022-08-17T09:03:13.381Z,12.00
2022-08-17T09:06:06.953Z,11.50
2022-08-17T09:09:10.420Z,14.20
2022-08-17T09:14:50.052Z,12.00
2022-08-17T09:17:30.211Z,10.60
2022-08-17T09:20:28.237Z,14.00
2022-08-17T09:23:08.808Z,10.20
2022-08-17T09:25:51.812Z,16.90
2022-08-17T09:28:28.177Z,11.10
2022-08-17T09:31:04.804Z,9.70
2022-08-17T09:33:40.096Z,11.30
2022-08-17T09:36:26.439Z,9.70
2022-08-17T09:39:01.807Z,10.80
2022-08-17T09:41:51.840Z,12.40
2022-08-17T09:44:36.231Z,11.50
2022-08-17T09:47:19.440Z,8.30
2022-08-17T09:49:54.388Z,11.10
2022-08-17T09:52:29.528Z,9.30
2022-08-17T09:55:01.084Z,9.70
2022-08-17T09:57:38.108Z,13.10
2022-08-17T10:00:27.618Z,11.70
2022-08-17T10:03:25.563Z,15.10
2022-08-17T10:06:07.885Z,10.80
2022-08-17T10:09:10.044Z,8.90
2022-08-17T10:12:17.355Z,13.70
2022-08-17T10:14:55.584Z,14.00
2022-08-17T10:17:30.317Z,11.00
2022-08-17T10:20:12.731Z,14.80
2022-08-17T10:23:08.293Z,14.10
2022-08-17T10:26:00.643Z,10.60
2022-08-17T10:28:36.996Z,10.70
2022-08-17T10:34:28.040Z,9.50
2022-08-17T10:37:28.667Z,15.00
2022-08-17T10:40:15.382Z,10.50
2022-08-17T10:42:50.395Z,11.70
2022-08-17T10:45:26.451Z,12.40
2022-08-17T10:48:06.167Z,8.40
2022-08-17T10:50:57.824Z,12.10
2022-08-17T10:53:31.954Z,10.30
2022-08-17T10:56:12.067Z,11.30
2022-08-17T10:58:55.447Z,10.90
2022-08-17T11:04:18.171Z,13.50
2022-08-17T11:07:14.709Z,9.80
2022-08-17T11:10:08.698Z,9.00
2022-08-17T11:12:55.394Z,10.30
2022-08-17T11:15:59.106Z,8.60
2022-08-17T11:19:10.330Z,12.10
2022-08-17T11:21:59.726Z,8.20
2022-08-17T11:24:31.063Z,13.30
2022-08-17T11:27:12.122Z,12.10
2022-08-17T11:30:01.487Z,10.30
2022-08-17T11:32:47.492Z,14.50
2022-08-17T11:35:22.375Z,13.00
2022-08-17T11:38:16.276Z,11.60
2022-08-17T11:41:00.333Z,11.00
2022-08-17T11:46:20.542Z,10.40
2022-08-17T11:49:32.830Z,12.20
2022-08-17T11:52:01.410Z,13.50
2022-08-17T11:54:46.472Z,12.00
2022-08-17T11:57:26.931Z,10.60
2022-08-17T11:59:58.444Z,12.00
2022-08-17T12:02:32.890Z,12.90
2022-08-17T12:05:23.175Z,16.00
2022-08-17T12:07:57.541Z,11.70
2022-08-17T12:10:32.144Z,12.70
2022-08-17T12:13:13.348Z,12.80
2022-08-17T12:15:54.184Z,14.20
2022-08-17T12:18:24.808Z,11.50
2022-08-17T12:21:30.687Z,14.50
2022-08-17T12:23:58.904Z,13.70
2022-08-17T12:26:34.085Z,14.00
2022-08-17T12:29:17.837Z,11.50
2022-08-17T12:32:02.267Z,13.10
2022-08-17T12:34:36.631Z,12.40
2022-08-17T12:37:16.396Z,20.10
2022-08-17T12:40:04.218Z,13.70
2022-08-17T12:42:37.433Z,15.90
2022-08-17T12:47:49.586Z,15.00
2022-08-17T12:50:29.602Z,15.50
2022-08-17T12:53:02.321Z,16.70
2022-08-17T12:55:37.229Z,16.90
2022-08-17T12:58:09.872Z,18.10
2022-08-17T13:00:48.847Z,18.10
2022-08-17T13:03:21.088Z,17.80
2022-08-17T13:05:52.105Z,15.00
2022-08-17T13:08:31.772Z,15.50
2022-08-17T13:11:04.173Z,15.10
2022-08-17T13:13:35.427Z,21.00
2022-08-17T13:16:26.610Z,15.60
2022-08-17T13:19:16.735Z,16.10
2022-08-17T13:21:55.129Z,14.70
2022-08-17T13:24:38.217Z,16.10
2022-08-17T13:29:53.603Z,16.70
2022-08-17T13:32:45.125Z,13.30
2022-08-17T13:35:40.003Z,13.10
2022-08-17T13:38:15.302Z,12.40
2022-08-17T13:40:50.813Z,12.10
2022-08-17T13:43:49.644Z,15.50
2022-08-17T13:46:26.309Z,12.30
2022-08-17T13:49:02.256Z,16.80
2022-08-17T13:51:35.256Z,12.70
2022-08-17T13:54:08.094Z,14.30
2022-08-17T13:56:50.132Z,13.60
2022-08-17T13:59:53.239Z,14.30
2022-08-17T14:02:19.936Z,12.90
2022-08-17T14:04:48.948Z,14.40
2022-08-17T14:07:18.317Z,12.60
2022-08-17T14:09:49.401Z,11.60
2022-08-17T14:12:21.733Z,12.60
2022-08-17T14:14:49.817Z,13.60
2022-08-17T14:17:19.152Z,13.60
2022-08-17T14:19:48.292Z,10.90
2022-08-17T14:22:23.808Z,11.80
2022-08-17T14:24:52.226Z,13.80
2022-08-17T14:27:21.225Z,11.10
2022-08-17T14:29:49.362Z,10.40
2022-08-17T14:32:27.173Z,12.10
2022-08-17T14:34:57.841Z,18.00
2022-08-17T14:37:28.613Z,10.10
2022-08-17T14:40:03.864Z,13.90
2022-08-17T14:42:35.227Z,12.30
2022-08-17T14:45:06.394Z,12.30
2022-08-17T14:47:54.517Z,10.90
2022-08-17T14:50:24.057Z,11.60
2022-08-17T14:52:52.367Z,11.60
2022-08-17T14:55:21.383Z,11.10
2022-08-17T14:57:49.752Z,12.40
2022-08-17T15:00:18.253Z,10.80
2022-08-17T15:02:53.904Z,14.00
2022-08-17T15:05:24.771Z,10.20
2022-08-17T15:07:54.006Z,12.90
2022-08-17T15:10:23.976Z,18.20
2022-08-17T15:12:54.588Z,10.90
2022-08-17T15:15:23.127Z,10.10
2022-08-17T15:17:51.783Z,11.00
2022-08-17T15:20:24.240Z,11.10
2022-08-17T15:22:56.230Z,13.60
2022-08-17T15:25:30.410Z,10.80
2022-08-17T15:27:59.540Z,10.90
2022-08-17T15:30:29.444Z,12.60
2022-08-17T15:32:59.580Z,12.40
2022-08-17T15:35:32.445Z,9.60
2022-08-17T15:38:11.334Z,12.60
2022-08-17T15:40:44.317Z,10.60
2022-08-17T15:43:15.615Z,11.60
2022-08-17T15:45:43.949Z,13.10
2022-08-17T15:48:14.780Z,12.60
2022-08-17T15:50:45.232Z,14.80
2022-08-17T15:53:14.304Z,11.00
2022-08-17T15:55:43.224Z,14.60
2022-08-17T15:58:11.563Z,14.10
2022-08-17T16:01:06.838Z,14.60
2022-08-17T16:03:58.047Z,12.60
2022-08-17T16:06:17.796Z,11.50
2022-08-17T16:08:46.107Z,14.70
2022-08-17T16:11:17.096Z,11.30
2022-08-17T16:13:51.300Z,12.80
2022-08-17T16:16:23.814Z,12.90
2022-08-17T16:18:56.340Z,18.00
2022-08-17T16:21:29.566Z,14.90
2022-08-17T16:24:04.141Z,14.80
2022-08-17T16:26:35.504Z,12.60
2022-08-17T16:29:06.860Z,14.60
2022-08-17T16:31:36.302Z,20.80
2022-08-17T16:34:17.304Z,17.10
2022-08-17T16:36:55.415Z,15.60
2022-08-17T16:39:29.346Z,12.70
2022-08-17T16:41:57.902Z,15.60
2022-08-17T16:44:31.016Z,16.50
2022-08-17T16:47:01.395Z,14.20
2022-08-17T16:49:36.762Z,13.80
2022-08-17T16:52:10.471Z,15.10
2022-08-17T16:54:43.813Z,14.60
2022-08-17T16:57:13.943Z,17.90
2022-08-17T16:59:44.913Z,16.00
2022-08-17T17:02:14.498Z,18.00
2022-08-17T17:05:20.830Z,13.60
2022-08-17T17:07:55.566Z,18.40
2022-08-17T17:10:30.938Z,14.10
2022-08-17T17:13:03.553Z,12.60
2022-08-17T17:18:13.096Z,19.10
2022-08-17T17:20:59.426Z,22.50
2022-08-17T17:23:43.747Z,17.10
2022-08-17T17:26:20.113Z,18.90
2022-08-17T17:29:00.381Z,18.20
2022-08-17T17:31:38.525Z,14.60
2022-08-17T17:34:10.792Z,16.90
2022-08-17T17:36:50.856Z,19.50
2022-08-17T17:39:43.746Z,15.80
2022-08-17T17:42:20.628Z,18.70
2022-08-17T17:44:59.504Z,18.40
2022-08-17T17:47:29.704Z,18.40
2022-08-17T17:50:01.493Z,16.00
2022-08-17T17:52:41.186Z,15.40
2022-08-17T17:55:18.426Z,17.90
2022-08-17T17:57:54.586Z,20.70
2022-08-17T18:00:49.154Z,13.60
2022-08-17T18:03:23.189Z,18.00
2022-08-17T18:06:06.403Z,14.20
2022-08-17T18:08:34.828Z,18.30
2022-08-17T18:11:12.270Z,15.20
2022-08-17T18:13:58.950Z,14.30
2022-08-17T18:16:31.902Z,14.30
2022-08-17T18:19:00.604Z,17.40
2022-08-17T18:21:44.418Z,19.90
2022-08-17T18:26:42.026Z,15.00
2022-08-17T18:29:22.418Z,15.60
2022-08-17T18:32:16.410Z,16.20
2022-08-17T18:37:43.401Z,15.50
2022-08-17T18:40:17.951Z,16.10
2022-08-17T18:43:05.890Z,15.50
2022-08-17T18:45:34.111Z,17.00
2022-08-17T18:48:02.700Z,15.70
2022-08-17T18:50:41.501Z,17.30
2022-08-17T18:53:40.886Z,14.70
2022-08-17T18:56:20.725Z,14.30
2022-08-17T18:59:11.921Z,15.70
2022-08-17T19:01:59.853Z,17.00
2022-08-17T19:04:59.441Z,18.50
2022-08-17T19:07:32.178Z,14.40
2022-08-17T19:10:09.177Z,17.90
2022-08-17T19:12:40.330Z,13.60
2022-08-17T19:15:12.516Z,16.60
2022-08-17T19:17:46.419Z,16.60
2022-08-17T19:20:17.572Z,16.00
2022-08-17T19:22:55.941Z,16.00
2022-08-17T19:25:29.754Z,15.30
2022-08-17T19:28:22.273Z,16.20
2022-08-17T19:30:56.641Z,15.60
2022-08-17T19:33:26.311Z,17.00
2022-08-17T19:36:24.006Z,22.30
2022-08-17T19:39:26.434Z,19.20
2022-08-17T19:42:18.082Z,18.20
2022-08-17T19:44:58.930Z,20.20
2022-08-17T19:47:53.831Z,18.10
2022-08-17T19:50:41.197Z,17.80
2022-08-17T19:54:01.579Z,16.70
2022-08-17T19:59:11.880Z,17.60
2022-08-17T20:02:01.132Z,20.50
2022-08-17T20:04:32.365Z,18.80
2022-08-17T20:07:06.451Z,21.90
2022-08-17T20:09:38.202Z,21.40
2022-08-17T20:12:18.685Z,19.50
2022-08-17T20:15:27.764Z,20.00
2022-08-17T20:18:00.109Z,20.50
2022-08-17T20:20:35.908Z,21.20
2022-08-17T20:23:31.895Z,15.70
2022-08-17T20:26:18.961Z,17.50
2022-08-17T20:29:10.449Z,20.00
2022-08-17T20:31:58.695Z,20.10
2022-08-17T20:34:33.574Z,17.20
2022-08-17T20:37:14.900Z,17.70
2022-08-17T20:40:09.293Z,15.10
2022-08-17T20:42:37.729Z,16.30
2022-08-17T20:45:21.160Z,17.10
2022-08-17T20:48:18.457Z,22.70
2022-08-17T20:50:50.734Z,15.70
2022-08-17T20:53:52.315Z,17.40
2022-08-17T20:56:43.507Z,19.40
2022-08-17T20:59:20.550Z,17.70
2022-08-17T21:02:17.664Z,17.80
2022-08-17T21:04:50.045Z,18.80
2022-08-17T21:07:43.597Z,17.60
2022-08-17T21:10:18.097Z,20.40
2022-08-17T21:12:51.542Z,16.90
2022-08-17T21:18:18.456Z,17.70
2022-08-17T21:21:20.930Z,21.80
2022-08-17T21:24:07.033Z,18.90
2022-08-17T21:26:39.038Z,19.30
2022-08-17T21:32:02.153Z,19.40
2022-08-17T21:34:37.285Z,19.00
2022-08-17T21:37:20.500Z,19.40
2022-08-17T21:39:51.926Z,19.70
2022-08-17T21:42:29.201Z,19.10
2022-08-17T21:45:08.114Z,17.80
2022-08-17T21:47:40.681Z,18.60
2022-08-17T21:50:25.175Z,18.00
2022-08-17T21:52:54.593Z,17.30
2022-08-17T21:55:30.291Z,16.40
2022-08-17T21:58:14.054Z,18.80
2022-08-17T22:00:46.355Z,16.30
2022-08-17T22:03:30.377Z,16.00
2022-08-17T22:05:58.518Z,18.60
2022-08-17T22:08:26.982Z,16.50
2022-08-17T22:11:02.150Z,17.70
2022-08-17T22:13:30.325Z,17.90
2022-08-17T22:16:05.900Z,16.20
2022-08-17T22:18:53.727Z,15.90
2022-08-17T22:21:22.441Z,16.70
2022-08-17T22:24:04.429Z,19.40
2022-08-17T22:27:00.395Z,17.30
2022-08-17T22:29:46.863Z,19.60
2022-08-17T22:32:38.514Z,19.60
2022-08-17T22:35:32.659Z,22.40
2022-08-17T22:40:53.912Z,21.80
2022-08-17T22:43:26.304Z,20.10
2022-08-17T22:46:00.160Z,22.50
2022-08-17T22:51:14.473Z,20.80
2022-08-17T22:54:07.997Z,19.10
2022-08-17T22:56:55.141Z,22.00
2022-08-17T22:59:41.949Z,20.50
2022-08-17T23:02:14.850Z,22.40
2022-08-17T23:05:16.613Z,18.10
2022-08-17T23:07:46.727Z,20.90
2022-08-17T23:10:15.498Z,19.90
2022-08-17T23:12:43.617Z,21.90
2022-08-17T23:15:16.294Z,18.90
2022-08-17T23:17:45.484Z,20.20
2022-08-17T23:20:15.739Z,18.60
2022-08-17T23:22:52.194Z,22.80
2022-08-17T23:25:31.041Z,22.30
2022-08-17T23:28:03.728Z,19.90
2022-08-17T23:30:43.422Z,20.70
2022-08-17T23:33:39.877Z,21.70
2022-08-17T23:36:09.883Z,18.40
2022-08-17T23:38:38.016Z,18.60
2022-08-17T23:41:12.269Z,19.50
2022-08-17T23:43:56.516Z,18.90
2022-08-17T23:46:25.240Z,22.00
2022-08-17T23:48:54.189Z,21.40
2022-08-17T23:51:27.528Z,17.60
2022-08-17T23:54:05.787Z,19.10
2022-08-17T23:56:44.579Z,22.30
2022-08-17T23:59:15.040Z,18.80
